Overview Statistics Trail Chart Weather Telemetry Raw packets
 

This is the latest recevied weather packets stored in our database for station/object SP5MRF-11. If no packets are shown the sender has not sent any weather packets the latest 10 day(s).

<< 1 2 3 4 5 6 >>
Time Temp. Humidity Pressure Rain* Wind** Luminosity Snow
1788534157 22.78° C 52% 1007.9 hPa - - - -
1788533257 23.33° C 51% 1008.3 hPa - - - -
1788532357 23.33° C 51% 1008.7 hPa - - - -
1788531457 23.33° C 50% 1009 hPa - - - -
1788530597 23.33° C 51% 1009.2 hPa - - - -
1788530557 23.33° C 51% 1009.2 hPa - - - -
1788529656 23.89° C 50% 1009.5 hPa - - - -
1788528756 24.44° C 50% 1009.7 hPa - - - -
1788527856 24.44° C 50% 1010 hPa - - - -
1788526956 25° C 50% 1010.4 hPa - - - -
1788526055 24.44° C 50% 1010.4 hPa - - - -
1788525155 23.89° C 51% 1010.7 hPa - - - -
1788524255 23.89° C 50% 1011 hPa - - - -
1788523355 25° C 50% 1011.1 hPa - - - -
1788522455 24.44° C 50% 1011.2 hPa - - - -
1788521554 26.67° C 48% 1011.4 hPa - - - -
1788520654 27.78° C 47% 1011.6 hPa - - - -
1788519826 28.33° C 48% 1011.8 hPa - - - -
1788519754 28.33° C 48% 1011.8 hPa - - - -
1788518854 28.89° C 48% 1011.9 hPa - - - -
1788517954 27.22° C 50% 1012 hPa - - - -
1788517054 27.22° C 50% 1012.1 hPa - - - -
1788516154 27.22° C 50% 1012.3 hPa - - - -
1788515253 26.11° C 53% 1012.2 hPa - - - -
1788514353 27.78° C 50% 1012.2 hPa - - - -

* Rain since midnight (hover to see other rain measurements)
** Current wind speed in m/s (hover to see current wind gust speed)